sensor_id;sensor_type;location;lat;lon;timestamp;pressure;altitude;pressure_sealevel;temperature;humidity
30875;BME280;17581;43.222;27.924;2023-03-03T00:00:42;101157.63;;;8.68;68.75
30875;BME280;17581;43.222;27.924;2023-03-03T00:03:08;101143.25;;;8.69;68.39
30875;BME280;17581;43.222;27.924;2023-03-03T00:05:35;101142.97;;;8.59;68.67
30875;BME280;17581;43.222;27.924;2023-03-03T00:08:01;101143.97;;;8.58;68.80
30875;BME280;17581;43.222;27.924;2023-03-03T00:10:27;101139.16;;;8.63;68.08
30875;BME280;17581;43.222;27.924;2023-03-03T00:12:52;101126.97;;;8.72;68.45
30875;BME280;17581;43.222;27.924;2023-03-03T00:15:20;101123.13;;;8.76;67.79
30875;BME280;17581;43.222;27.924;2023-03-03T00:17:46;101120.78;;;8.84;67.83
30875;BME280;17581;43.222;27.924;2023-03-03T00:22:47;101119.63;;;8.88;67.70
30875;BME280;17581;43.222;27.924;2023-03-03T00:25:30;101119.13;;;8.96;67.53
30875;BME280;17581;43.222;27.924;2023-03-03T00:28:26;101117.72;;;9.03;66.89
30875;BME280;17581;43.222;27.924;2023-03-03T00:30:53;101119.66;;;9.01;66.71
30875;BME280;17581;43.222;27.924;2023-03-03T00:33:30;101111.97;;;9.09;66.44
30875;BME280;17581;43.222;27.924;2023-03-03T00:36:36;101109.50;;;9.18;66.40
30875;BME280;17581;43.222;27.924;2023-03-03T00:39:25;101114.16;;;9.29;65.87
30875;BME280;17581;43.222;27.924;2023-03-03T00:41:51;101106.94;;;9.29;65.35
30875;BME280;17581;43.222;27.924;2023-03-03T00:47:36;101100.19;;;9.24;65.14
30875;BME280;17581;43.222;27.924;2023-03-03T00:52:34;101095.16;;;9.19;64.58
30875;BME280;17581;43.222;27.924;2023-03-03T00:55:00;101085.28;;;9.20;65.13
30875;BME280;17581;43.222;27.924;2023-03-03T00:57:25;101088.69;;;9.22;65.15
30875;BME280;17581;43.222;27.924;2023-03-03T00:59:51;101080.84;;;9.19;64.29
30875;BME280;17581;43.222;27.924;2023-03-03T01:02:16;101079.69;;;9.23;64.39
30875;BME280;17581;43.222;27.924;2023-03-03T01:04:44;101089.78;;;9.32;63.96
30875;BME280;17581;43.222;27.924;2023-03-03T01:07:13;101078.25;;;9.17;64.40
30875;BME280;17581;43.222;27.924;2023-03-03T01:09:38;101074.13;;;9.26;64.35
30875;BME280;17581;43.222;27.924;2023-03-03T01:12:04;101073.25;;;9.25;64.00
30875;BME280;17581;43.222;27.924;2023-03-03T01:14:30;101064.22;;;9.14;63.75
30875;BME280;17581;43.222;27.924;2023-03-03T01:16:56;101072.47;;;8.98;64.40
30875;BME280;17581;43.222;27.924;2023-03-03T01:19:22;101069.31;;;8.92;64.48
30875;BME280;17581;43.222;27.924;2023-03-03T01:21:47;101063.75;;;8.95;64.66
30875;BME280;17581;43.222;27.924;2023-03-03T01:24:13;101053.34;;;9.03;64.63
30875;BME280;17581;43.222;27.924;2023-03-03T01:26:38;101052.84;;;9.10;64.59
30875;BME280;17581;43.222;27.924;2023-03-03T01:29:04;101056.72;;;9.19;64.00
30875;BME280;17581;43.222;27.924;2023-03-03T01:31:29;101056.28;;;9.25;63.91
30875;BME280;17581;43.222;27.924;2023-03-03T01:33:54;101067.88;;;9.25;63.80
30875;BME280;17581;43.222;27.924;2023-03-03T01:36:24;101057.81;;;9.29;64.13
30875;BME280;17581;43.222;27.924;2023-03-03T01:38:49;101043.41;;;9.30;64.24
30875;BME280;17581;43.222;27.924;2023-03-03T01:41:15;101050.50;;;9.31;63.88
30875;BME280;17581;43.222;27.924;2023-03-03T01:43:46;101054.13;;;9.30;64.15
30875;BME280;17581;43.222;27.924;2023-03-03T01:46:27;101044.66;;;9.12;64.27
30875;BME280;17581;43.222;27.924;2023-03-03T01:49:02;101042.44;;;9.18;64.86
30875;BME280;17581;43.222;27.924;2023-03-03T01:51:57;101044.25;;;9.18;64.98
30875;BME280;17581;43.222;27.924;2023-03-03T01:56:55;101034.28;;;9.20;64.87
30875;BME280;17581;43.222;27.924;2023-03-03T01:59:28;101042.66;;;9.28;64.86
30875;BME280;17581;43.222;27.924;2023-03-03T02:01:55;101037.94;;;9.32;64.78
30875;BME280;17581;43.222;27.924;2023-03-03T02:04:20;101046.84;;;9.32;64.68
30875;BME280;17581;43.222;27.924;2023-03-03T02:06:51;101046.50;;;9.37;64.58
30875;BME280;17581;43.222;27.924;2023-03-03T02:12:02;101050.28;;;9.34;64.60
30875;BME280;17581;43.222;27.924;2023-03-03T02:14:29;101034.91;;;9.36;64.42
30875;BME280;17581;43.222;27.924;2023-03-03T02:16:54;101034.16;;;9.34;64.05
30875;BME280;17581;43.222;27.924;2023-03-03T02:22:33;101039.31;;;9.37;64.21
30875;BME280;17581;43.222;27.924;2023-03-03T02:25:04;101033.44;;;9.45;64.08
30875;BME280;17581;43.222;27.924;2023-03-03T02:27:33;101033.75;;;9.40;64.00
30875;BME280;17581;43.222;27.924;2023-03-03T02:30:08;101033.53;;;9.43;64.20
30875;BME280;17581;43.222;27.924;2023-03-03T02:32:34;101035.91;;;9.48;64.03
30875;BME280;17581;43.222;27.924;2023-03-03T02:34:59;101038.47;;;9.37;63.56
30875;BME280;17581;43.222;27.924;2023-03-03T02:37:25;101038.03;;;9.30;64.07
30875;BME280;17581;43.222;27.924;2023-03-03T02:39:51;101041.47;;;9.32;64.37
30875;BME280;17581;43.222;27.924;2023-03-03T02:42:25;101034.59;;;9.28;64.09
30875;BME280;17581;43.222;27.924;2023-03-03T02:44:52;101026.44;;;9.29;64.30
30875;BME280;17581;43.222;27.924;2023-03-03T02:47:18;101041.06;;;9.38;63.94
30875;BME280;17581;43.222;27.924;2023-03-03T02:49:44;101033.97;;;9.37;63.86
30875;BME280;17581;43.222;27.924;2023-03-03T02:52:10;101035.91;;;9.35;64.74
30875;BME280;17581;43.222;27.924;2023-03-03T02:54:37;101040.72;;;9.43;64.21
30875;BME280;17581;43.222;27.924;2023-03-03T02:57:03;101041.13;;;9.11;64.38
30875;BME280;17581;43.222;27.924;2023-03-03T02:59:29;101040.41;;;9.22;64.84
30875;BME280;17581;43.222;27.924;2023-03-03T03:01:55;101030.19;;;9.27;64.55
30875;BME280;17581;43.222;27.924;2023-03-03T03:04:22;101023.88;;;9.28;64.26
30875;BME280;17581;43.222;27.924;2023-03-03T03:06:48;101026.84;;;9.36;64.40
30875;BME280;17581;43.222;27.924;2023-03-03T03:09:15;101030.53;;;9.35;64.20
30875;BME280;17581;43.222;27.924;2023-03-03T03:11:41;101015.28;;;9.10;64.28
30875;BME280;17581;43.222;27.924;2023-03-03T03:14:07;101026.75;;;9.12;64.64
30875;BME280;17581;43.222;27.924;2023-03-03T03:16:33;101020.41;;;9.01;64.78
30875;BME280;17581;43.222;27.924;2023-03-03T03:18:59;101020.63;;;9.10;64.61
30875;BME280;17581;43.222;27.924;2023-03-03T03:21:25;101019.03;;;9.08;64.64
30875;BME280;17581;43.222;27.924;2023-03-03T03:23:51;101005.25;;;9.00;64.16
30875;BME280;17581;43.222;27.924;2023-03-03T03:26:16;101009.75;;;8.99;64.55
30875;BME280;17581;43.222;27.924;2023-03-03T03:28:42;101012.16;;;9.04;64.20
30875;BME280;17581;43.222;27.924;2023-03-03T03:31:08;101013.19;;;8.89;64.67
30875;BME280;17581;43.222;27.924;2023-03-03T03:33:34;101012.88;;;8.93;64.68
30875;BME280;17581;43.222;27.924;2023-03-03T03:36:00;101022.56;;;8.96;64.76
30875;BME280;17581;43.222;27.924;2023-03-03T03:38:27;101013.31;;;9.00;64.15
30875;BME280;17581;43.222;27.924;2023-03-03T03:40:54;101007.72;;;9.03;64.02
30875;BME280;17581;43.222;27.924;2023-03-03T03:43:19;101000.31;;;8.94;63.66
30875;BME280;17581;43.222;27.924;2023-03-03T03:45:45;101007.53;;;9.06;64.41
30875;BME280;17581;43.222;27.924;2023-03-03T03:48:10;101007.97;;;9.12;63.87
30875;BME280;17581;43.222;27.924;2023-03-03T03:50:37;101010.34;;;9.17;63.77
30875;BME280;17581;43.222;27.924;2023-03-03T03:53:03;101008.63;;;9.16;64.11
30875;BME280;17581;43.222;27.924;2023-03-03T03:55:29;101005.38;;;9.23;63.38
30875;BME280;17581;43.222;27.924;2023-03-03T03:57:55;101003.69;;;9.10;63.86
30875;BME280;17581;43.222;27.924;2023-03-03T04:00:21;101000.13;;;9.22;63.55
30875;BME280;17581;43.222;27.924;2023-03-03T04:02:46;100995.28;;;9.27;62.86
30875;BME280;17581;43.222;27.924;2023-03-03T04:05:12;100987.81;;;9.32;63.00
30875;BME280;17581;43.222;27.924;2023-03-03T04:07:38;100992.81;;;9.24;63.21
30875;BME280;17581;43.222;27.924;2023-03-03T04:10:04;100992.09;;;9.35;62.97
30875;BME280;17581;43.222;27.924;2023-03-03T04:12:29;100991.66;;;9.28;62.70
30875;BME280;17581;43.222;27.924;2023-03-03T04:15:00;100987.59;;;9.22;62.69
30875;BME280;17581;43.222;27.924;2023-03-03T04:17:25;100974.38;;;9.07;63.05
30875;BME280;17581;43.222;27.924;2023-03-03T04:19:52;100993.69;;;9.12;63.05
30875;BME280;17581;43.222;27.924;2023-03-03T04:22:17;100992.31;;;9.19;63.02
30875;BME280;17581;43.222;27.924;2023-03-03T04:24:43;100991.66;;;9.28;63.12
30875;BME280;17581;43.222;27.924;2023-03-03T04:27:08;100984.13;;;9.20;63.09
30875;BME280;17581;43.222;27.924;2023-03-03T04:29:34;100983.50;;;9.04;63.92
30875;BME280;17581;43.222;27.924;2023-03-03T04:32:00;100992.09;;;9.22;63.78
30875;BME280;17581;43.222;27.924;2023-03-03T04:34:26;100979.94;;;9.04;63.26
30875;BME280;17581;43.222;27.924;2023-03-03T04:36:51;100987.03;;;8.92;63.91
30875;BME280;17581;43.222;27.924;2023-03-03T04:39:16;100980.47;;;8.96;63.97
30875;BME280;17581;43.222;27.924;2023-03-03T04:41:42;100982.41;;;9.07;63.75
30875;BME280;17581;43.222;27.924;2023-03-03T04:44:07;100987.13;;;9.03;63.80
30875;BME280;17581;43.222;27.924;2023-03-03T04:46:33;100988.66;;;9.07;64.06
30875;BME280;17581;43.222;27.924;2023-03-03T04:48:58;100995.84;;;9.07;64.28
30875;BME280;17581;43.222;27.924;2023-03-03T04:51:24;100979.75;;;9.07;64.03
30875;BME280;17581;43.222;27.924;2023-03-03T04:53:49;100992.06;;;9.09;64.31
30875;BME280;17581;43.222;27.924;2023-03-03T04:56:15;100982.22;;;9.10;64.20
30875;BME280;17581;43.222;27.924;2023-03-03T04:58:40;100975.53;;;9.03;64.51
30875;BME280;17581;43.222;27.924;2023-03-03T05:01:06;100986.06;;;9.06;64.07
30875;BME280;17581;43.222;27.924;2023-03-03T05:03:31;100993.81;;;9.10;64.11
30875;BME280;17581;43.222;27.924;2023-03-03T05:05:57;100983.28;;;8.95;64.06
30875;BME280;17581;43.222;27.924;2023-03-03T05:08:22;100993.25;;;8.93;64.79
30875;BME280;17581;43.222;27.924;2023-03-03T05:10:54;100981.66;;;8.80;65.25
30875;BME280;17581;43.222;27.924;2023-03-03T05:13:20;100995.06;;;8.80;65.23
30875;BME280;17581;43.222;27.924;2023-03-03T05:15:52;100998.25;;;8.72;65.62
30875;BME280;17581;43.222;27.924;2023-03-03T05:18:25;100987.28;;;8.62;65.66
30875;BME280;17581;43.222;27.924;2023-03-03T05:20:51;100988.38;;;8.72;65.40
30875;BME280;17581;43.222;27.924;2023-03-03T05:23:18;100993.53;;;8.75;65.65
30875;BME280;17581;43.222;27.924;2023-03-03T05:25:44;100983.38;;;8.81;65.14
30875;BME280;17581;43.222;27.924;2023-03-03T05:28:11;100992.91;;;8.85;64.53
30875;BME280;17581;43.222;27.924;2023-03-03T05:30:36;101006.69;;;8.93;64.27
30875;BME280;17581;43.222;27.924;2023-03-03T05:33:03;100995.31;;;9.02;64.04
30875;BME280;17581;43.222;27.924;2023-03-03T05:35:29;100987.78;;;9.07;63.26
30875;BME280;17581;43.222;27.924;2023-03-03T05:37:55;101008.41;;;9.19;63.12
30875;BME280;17581;43.222;27.924;2023-03-03T05:40:22;100996.38;;;9.12;63.32
30875;BME280;17581;43.222;27.924;2023-03-03T05:42:48;101011.19;;;9.30;63.16
30875;BME280;17581;43.222;27.924;2023-03-03T05:45:13;101003.47;;;9.25;63.23
30875;BME280;17581;43.222;27.924;2023-03-03T05:47:39;100993.38;;;9.29;63.04
30875;BME280;17581;43.222;27.924;2023-03-03T05:50:04;101007.63;;;9.42;63.19
30875;BME280;17581;43.222;27.924;2023-03-03T05:52:30;101014.53;;;9.46;62.47
30875;BME280;17581;43.222;27.924;2023-03-03T05:54:56;101011.41;;;9.52;62.66
30875;BME280;17581;43.222;27.924;2023-03-03T05:57:21;101007.53;;;9.56;62.58
30875;BME280;17581;43.222;27.924;2023-03-03T05:59:47;101008.63;;;9.54;62.08
30875;BME280;17581;43.222;27.924;2023-03-03T06:02:13;101010.75;;;9.61;62.11
30875;BME280;17581;43.222;27.924;2023-03-03T06:04:38;101015.81;;;9.66;61.27
30875;BME280;17581;43.222;27.924;2023-03-03T06:07:04;101012.25;;;9.65;61.53
30875;BME280;17581;43.222;27.924;2023-03-03T06:09:31;101000.44;;;9.68;61.65
30875;BME280;17581;43.222;27.924;2023-03-03T06:11:56;101004.28;;;9.76;61.31
30875;BME280;17581;43.222;27.924;2023-03-03T06:14:22;101005.56;;;9.71;61.42
30875;BME280;17581;43.222;27.924;2023-03-03T06:16:47;101001.94;;;9.72;61.19
30875;BME280;17581;43.222;27.924;2023-03-03T06:19:13;100995.78;;;9.70;60.91
30875;BME280;17581;43.222;27.924;2023-03-03T06:21:39;101002.31;;;9.78;61.19
30875;BME280;17581;43.222;27.924;2023-03-03T06:24:05;101002.75;;;9.85;61.03
30875;BME280;17581;43.222;27.924;2023-03-03T06:26:31;101005.97;;;9.90;60.89
30875;BME280;17581;43.222;27.924;2023-03-03T06:28:57;101006.63;;;9.94;60.61
30875;BME280;17581;43.222;27.924;2023-03-03T06:31:23;101002.19;;;9.93;60.84
30875;BME280;17581;43.222;27.924;2023-03-03T06:33:49;101004.44;;;9.99;60.46
30875;BME280;17581;43.222;27.924;2023-03-03T06:36:16;100995.97;;;9.92;60.11
30875;BME280;17581;43.222;27.924;2023-03-03T06:38:41;101000.47;;;9.92;60.14
30875;BME280;17581;43.222;27.924;2023-03-03T06:41:07;101010.56;;;10.01;60.22
30875;BME280;17581;43.222;27.924;2023-03-03T06:43:35;101011.94;;;10.06;59.91
30875;BME280;17581;43.222;27.924;2023-03-03T06:46:02;101005.50;;;10.09;60.22
30875;BME280;17581;43.222;27.924;2023-03-03T06:48:29;101009.16;;;10.08;60.09
30875;BME280;17581;43.222;27.924;2023-03-03T06:50:55;101005.72;;;10.06;59.81
30875;BME280;17581;43.222;27.924;2023-03-03T06:53:21;100999.81;;;10.01;59.88
30875;BME280;17581;43.222;27.924;2023-03-03T06:55:46;101009.47;;;10.16;59.62
30875;BME280;17581;43.222;27.924;2023-03-03T06:58:20;101010.31;;;10.04;58.72
30875;BME280;17581;43.222;27.924;2023-03-03T07:00:53;101008.09;;;9.98;59.14
30875;BME280;17581;43.222;27.924;2023-03-03T07:03:25;101007.00;;;10.00;58.70
30875;BME280;17581;43.222;27.924;2023-03-03T07:05:52;101005.50;;;10.09;58.73
30875;BME280;17581;43.222;27.924;2023-03-03T07:08:20;100998.16;;;10.11;58.73
30875;BME280;17581;43.222;27.924;2023-03-03T07:10:47;101010.97;;;10.20;58.32
30875;BME280;17581;43.222;27.924;2023-03-03T07:13:25;101012.78;;;10.19;58.16
30875;BME280;17581;43.222;27.924;2023-03-03T07:15:55;100999.75;;;10.26;58.28
30875;BME280;17581;43.222;27.924;2023-03-03T07:20:57;101003.09;;;10.29;58.17
30875;BME280;17581;43.222;27.924;2023-03-03T07:23:39;100991.47;;;10.29;57.77
30875;BME280;17581;43.222;27.924;2023-03-03T07:26:16;100991.47;;;10.29;57.67
30875;BME280;17581;43.222;27.924;2023-03-03T07:28:59;100994.38;;;10.26;57.49
30875;BME280;17581;43.222;27.924;2023-03-03T07:31:36;100995.56;;;10.22;58.18
30875;BME280;17581;43.222;27.924;2023-03-03T07:34:37;101000.22;;;10.20;58.03
30875;BME280;17581;43.222;27.924;2023-03-03T07:37:34;100986.66;;;10.21;58.68
30875;BME280;17581;43.222;27.924;2023-03-03T07:40:05;100991.22;;;10.32;58.44
30875;BME280;17581;43.222;27.924;2023-03-03T07:42:45;100991.00;;;10.35;58.25
30875;BME280;17581;43.222;27.924;2023-03-03T07:45:30;100988.72;;;10.42;57.58
30875;BME280;17581;43.222;27.924;2023-03-03T07:48:37;100983.97;;;10.45;56.82
30875;BME280;17581;43.222;27.924;2023-03-03T07:51:39;100977.59;;;10.46;56.92
30875;BME280;17581;43.222;27.924;2023-03-03T07:56:50;100974.59;;;10.51;56.91
30875;BME280;17581;43.222;27.924;2023-03-03T07:59:24;100969.22;;;10.62;56.95
30875;BME280;17581;43.222;27.924;2023-03-03T08:01:52;100962.41;;;10.58;56.31
30875;BME280;17581;43.222;27.924;2023-03-03T08:04:23;100965.78;;;10.49;56.85
30875;BME280;17581;43.222;27.924;2023-03-03T08:06:58;100960.94;;;10.65;56.37
30875;BME280;17581;43.222;27.924;2023-03-03T08:12:12;100970.13;;;10.73;56.54
30875;BME280;17581;43.222;27.924;2023-03-03T08:14:40;100964.66;;;10.75;56.56
30875;BME280;17581;43.222;27.924;2023-03-03T08:17:29;100960.47;;;10.71;56.49
30875;BME280;17581;43.222;27.924;2023-03-03T08:19:59;100943.97;;;10.75;56.58
30875;BME280;17581;43.222;27.924;2023-03-03T08:22:33;100951.50;;;10.94;56.18
30875;BME280;17581;43.222;27.924;2023-03-03T08:25:02;100963.94;;;10.84;56.17
30875;BME280;17581;43.222;27.924;2023-03-03T08:27:27;100953.28;;;10.82;55.13
30875;BME280;17581;43.222;27.924;2023-03-03T08:29:53;100941.38;;;10.63;56.03
30875;BME280;17581;43.222;27.924;2023-03-03T08:32:18;100961.00;;;10.76;55.68
30875;BME280;17581;43.222;27.924;2023-03-03T08:34:44;100952.94;;;10.52;56.08
30875;BME280;17581;43.222;27.924;2023-03-03T08:37:09;100932.56;;;10.26;55.98
30875;BME280;17581;43.222;27.924;2023-03-03T08:39:35;100955.16;;;10.58;56.41
30875;BME280;17581;43.222;27.924;2023-03-03T08:42:00;100960.00;;;10.77;56.39
30875;BME280;17581;43.222;27.924;2023-03-03T08:44:26;100955.78;;;10.97;55.70
30875;BME280;17581;43.222;27.924;2023-03-03T08:46:51;100953.09;;;11.08;55.85
30875;BME280;17581;43.222;27.924;2023-03-03T08:49:17;100966.06;;;11.14;55.07
30875;BME280;17581;43.222;27.924;2023-03-03T08:51:42;100965.97;;;11.15;54.60
30875;BME280;17581;43.222;27.924;2023-03-03T08:54:08;100954.72;;;11.21;54.71
30875;BME280;17581;43.222;27.924;2023-03-03T08:56:33;100953.72;;;11.22;54.38
30875;BME280;17581;43.222;27.924;2023-03-03T08:58:59;100970.28;;;11.40;54.10
30875;BME280;17581;43.222;27.924;2023-03-03T09:01:24;100971.00;;;11.53;54.41
30875;BME280;17581;43.222;27.924;2023-03-03T09:03:50;100964.66;;;11.43;54.71
30875;BME280;17581;43.222;27.924;2023-03-03T09:06:15;100964.00;;;11.17;56.41
30875;BME280;17581;43.222;27.924;2023-03-03T09:08:41;100958.22;;;11.00;56.41
30875;BME280;17581;43.222;27.924;2023-03-03T09:11:13;100957.50;;;10.98;57.53
30875;BME280;17581;43.222;27.924;2023-03-03T09:13:39;100953.09;;;11.08;57.15
30875;BME280;17581;43.222;27.924;2023-03-03T09:16:14;100950.47;;;10.84;57.39
30875;BME280;17581;43.222;27.924;2023-03-03T09:18:40;100953.28;;;10.82;57.93
30875;BME280;17581;43.222;27.924;2023-03-03T09:24:04;100952.13;;;10.63;57.81
30875;BME280;17581;43.222;27.924;2023-03-03T09:26:38;100953.00;;;10.63;57.72
30875;BME280;17581;43.222;27.924;2023-03-03T09:29:18;100947.25;;;10.68;57.68
30875;BME280;17581;43.222;27.924;2023-03-03T09:31:50;100940.66;;;10.61;57.67
30875;BME280;17581;43.222;27.924;2023-03-03T09:34:41;100937.72;;;10.64;58.40
30875;BME280;17581;43.222;27.924;2023-03-03T09:39:49;100933.09;;;10.77;57.17
30875;BME280;17581;43.222;27.924;2023-03-03T09:50:56;100930.38;;;10.66;57.49
30875;BME280;17581;43.222;27.924;2023-03-03T09:53:41;100915.91;;;10.56;57.22
30875;BME280;17581;43.222;27.924;2023-03-03T09:56:31;100919.84;;;10.52;57.70
30875;BME280;17581;43.222;27.924;2023-03-03T10:01:36;100906.38;;;10.52;58.60
30875;BME280;17581;43.222;27.924;2023-03-03T10:04:21;100906.25;;;10.53;57.93
30875;BME280;17581;43.222;27.924;2023-03-03T10:17:52;100886.28;;;10.90;57.07
30875;BME280;17581;43.222;27.924;2023-03-03T10:20:29;100882.25;;;10.85;57.22
30875;BME280;17581;43.222;27.924;2023-03-03T10:23:09;100875.72;;;10.76;56.85
30875;BME280;17581;43.222;27.924;2023-03-03T10:25:52;100872.09;;;10.88;57.09
30875;BME280;17581;43.222;27.924;2023-03-03T10:29:05;100864.03;;;11.11;57.55
30875;BME280;17581;43.222;27.924;2023-03-03T10:31:59;100866.44;;;11.47;57.12
30875;BME280;17581;43.222;27.924;2023-03-03T10:40:37;100865.72;;;11.45;56.11
30875;BME280;17581;43.222;27.924;2023-03-03T10:49:05;100858.81;;;11.85;55.79
30875;BME280;17581;43.222;27.924;2023-03-03T10:57:33;100846.56;;;11.81;55.11
30875;BME280;17581;43.222;27.924;2023-03-03T11:00:34;100845.19;;;11.87;55.78
30875;BME280;17581;43.222;27.924;2023-03-03T11:06:14;100841.69;;;11.75;56.47
30875;BME280;17581;43.222;27.924;2023-03-03T11:08:42;100837.16;;;11.54;56.41
30875;BME280;17581;43.222;27.924;2023-03-03T11:11:23;100825.63;;;11.63;56.54
30875;BME280;17581;43.222;27.924;2023-03-03T11:14:17;100817.00;;;11.48;56.25
30875;BME280;17581;43.222;27.924;2023-03-03T11:30:42;100783.91;;;10.81;58.05
30875;BME280;17581;43.222;27.924;2023-03-03T11:35:58;100782.81;;;10.95;58.52
30875;BME280;17581;43.222;27.924;2023-03-03T11:38:56;100774.94;;;11.14;58.21
30875;BME280;17581;43.222;27.924;2023-03-03T11:41:29;100780.31;;;11.14;58.04
30875;BME280;17581;43.222;27.924;2023-03-03T11:49:30;100771.00;;;11.40;57.10
30875;BME280;17581;43.222;27.924;2023-03-03T11:52:09;100768.75;;;11.45;57.24
30875;BME280;17581;43.222;27.924;2023-03-03T11:54:53;100763.94;;;11.71;57.45
30875;BME280;17581;43.222;27.924;2023-03-03T11:57:42;100765.97;;;11.78;56.14
30875;BME280;17581;43.222;27.924;2023-03-03T12:00:36;100768.75;;;11.45;57.30
30875;BME280;17581;43.222;27.924;2023-03-03T12:03:28;100757.53;;;11.40;56.91
30875;BME280;17581;43.222;27.924;2023-03-03T12:06:12;100737.75;;;11.08;56.65
30875;BME280;17581;43.222;27.924;2023-03-03T12:14:01;100770.88;;;11.30;57.87
30875;BME280;17581;43.222;27.924;2023-03-03T12:16:38;100763.53;;;11.32;58.10
30875;BME280;17581;43.222;27.924;2023-03-03T12:22:33;100746.16;;;11.25;57.59
30875;BME280;17581;43.222;27.924;2023-03-03T12:28:26;100765.66;;;11.18;57.03
30875;BME280;17581;43.222;27.924;2023-03-03T12:42:23;100771.31;;;10.59;59.48
30875;BME280;17581;43.222;27.924;2023-03-03T12:47:54;100754.34;;;10.70;59.58
30875;BME280;17581;43.222;27.924;2023-03-03T12:53:21;100767.16;;;11.00;58.66
30875;BME280;17581;43.222;27.924;2023-03-03T12:55:53;100765.91;;;10.92;58.82
30875;BME280;17581;43.222;27.924;2023-03-03T12:58:51;100758.34;;;10.75;59.85
30875;BME280;17581;43.222;27.924;2023-03-03T13:14:44;100765.44;;;10.65;60.58
30875;BME280;17581;43.222;27.924;2023-03-03T13:17:32;100758.59;;;10.72;60.11
30875;BME280;17581;43.222;27.924;2023-03-03T13:20:07;100750.78;;;10.69;60.39
30875;BME280;17581;43.222;27.924;2023-03-03T13:23:09;100753.31;;;10.71;59.84
30875;BME280;17581;43.222;27.924;2023-03-03T13:28:32;100754.19;;;10.71;59.88
30875;BME280;17581;43.222;27.924;2023-03-03T13:31:16;100748.09;;;10.69;60.18
30875;BME280;17581;43.222;27.924;2023-03-03T13:33:53;100752.63;;;10.58;60.46
30875;BME280;17581;43.222;27.924;2023-03-03T13:36:19;100752.97;;;10.64;61.04
30875;BME280;17581;43.222;27.924;2023-03-03T13:38:52;100745.25;;;10.71;60.90
30875;BME280;17581;43.222;27.924;2023-03-03T13:52:22;100744.16;;;10.73;61.07
30875;BME280;17581;43.222;27.924;2023-03-03T14:00:21;100737.31;;;10.80;61.96
30875;BME280;17581;43.222;27.924;2023-03-03T14:03:02;100744.88;;;10.64;61.62
30875;BME280;17581;43.222;27.924;2023-03-03T14:11:06;100744.03;;;10.42;61.87
30875;BME280;17581;43.222;27.924;2023-03-03T14:16:13;100739.63;;;10.29;63.15
30875;BME280;17581;43.222;27.924;2023-03-03T14:18:55;100740.72;;;10.38;63.45
30875;BME280;17581;43.222;27.924;2023-03-03T14:21:37;100726.91;;;10.31;63.17
30875;BME280;17581;43.222;27.924;2023-03-03T14:26:53;100728.41;;;10.35;63.49
30875;BME280;17581;43.222;27.924;2023-03-03T14:29:30;100734.63;;;10.36;63.81
30875;BME280;17581;43.222;27.924;2023-03-03T14:32:01;100729.38;;;10.34;64.19
30875;BME280;17581;43.222;27.924;2023-03-03T14:34:44;100722.16;;;10.35;64.73
30875;BME280;17581;43.222;27.924;2023-03-03T14:37:28;100733.91;;;10.45;63.92
30875;BME280;17581;43.222;27.924;2023-03-03T14:40:18;100740.16;;;10.46;63.66
30875;BME280;17581;43.222;27.924;2023-03-03T14:42:53;100721.91;;;10.27;64.49
30875;BME280;17581;43.222;27.924;2023-03-03T14:47:58;100737.91;;;10.17;64.80
30875;BME280;17581;43.222;27.924;2023-03-03T14:50:57;100744.72;;;10.21;65.19
30875;BME280;17581;43.222;27.924;2023-03-03T14:53:34;100751.78;;;10.11;65.55
30875;BME280;17581;43.222;27.924;2023-03-03T14:56:24;100752.97;;;9.96;66.13
30875;BME280;17581;43.222;27.924;2023-03-03T14:58:52;100753.69;;;9.98;66.67
30875;BME280;17581;43.222;27.924;2023-03-03T15:01:32;100755.75;;;9.95;67.01
30875;BME280;17581;43.222;27.924;2023-03-03T15:06:55;100748.69;;;9.94;67.87
30875;BME280;17581;43.222;27.924;2023-03-03T15:11:52;100760.16;;;9.84;68.83
30875;BME280;17581;43.222;27.924;2023-03-03T15:14:22;100741.13;;;9.64;69.65
30875;BME280;17581;43.222;27.924;2023-03-03T15:22:40;100741.34;;;9.84;70.69
30875;BME280;17581;43.222;27.924;2023-03-03T15:27:43;100750.59;;;9.80;70.89
30875;BME280;17581;43.222;27.924;2023-03-03T15:30:26;100751.78;;;9.76;70.65
30875;BME280;17581;43.222;27.924;2023-03-03T15:35:45;100752.03;;;9.73;70.93
30875;BME280;17581;43.222;27.924;2023-03-03T15:38:22;100761.28;;;9.69;70.52
30875;BME280;17581;43.222;27.924;2023-03-03T15:41:07;100760.69;;;9.66;70.47
30875;BME280;17581;43.222;27.924;2023-03-03T15:46:54;100762.28;;;9.68;71.32
30875;BME280;17581;43.222;27.924;2023-03-03T16:00:35;100752.50;;;9.67;72.52
30875;BME280;17581;43.222;27.924;2023-03-03T16:03:13;100757.63;;;9.70;73.00
30875;BME280;17581;43.222;27.924;2023-03-03T16:06:02;100763.22;;;9.67;73.00
30875;BME280;17581;43.222;27.924;2023-03-03T16:27:45;100789.81;;;9.59;75.91
30875;BME280;17581;43.222;27.924;2023-03-03T16:30:27;100780.66;;;9.62;76.17
30875;BME280;17581;43.222;27.924;2023-03-03T16:35:45;100797.19;;;9.68;76.27
30875;BME280;17581;43.222;27.924;2023-03-03T16:41:04;100794.19;;;9.60;77.11
30875;BME280;17581;43.222;27.924;2023-03-03T16:43:41;100792.03;;;9.65;77.18
30875;BME280;17581;43.222;27.924;2023-03-03T16:54:09;100821.59;;;9.65;76.07
30875;BME280;17581;43.222;27.924;2023-03-03T16:56:59;100814.38;;;9.66;75.94
30875;BME280;17581;43.222;27.924;2023-03-03T17:05:10;100822.22;;;9.69;75.90
30875;BME280;17581;43.222;27.924;2023-03-03T17:10:26;100822.00;;;9.72;75.94